Time,TemperatureF,DewpointF,PressureIn,WindDirection,WindDirectionDegrees,WindSpeedMPH,WindSpeedGustMPH,Humidity,HourlyPrecipIn,Conditions,Clouds,dailyrainin,SoftwareType,DateUTC
2013-10-02 00:14:00,61.0,57.4,29.84,NW,315,0.0,-999.0,88,-99.99,,,0.00,Acu-Link.com,2013-10-02 04:14:00,
2013-10-02 00:29:00,60.6,57.3,29.84,NNE,22,0.0,-999.0,89,-99.99,,,0.00,Acu-Link.com,2013-10-02 04:29:00,
2013-10-02 00:44:00,60.3,57.0,29.83,NNE,22,0.0,-999.0,89,-99.99,,,0.00,Acu-Link.com,2013-10-02 04:44:00,
2013-10-02 01:00:00,60.3,57.0,29.83,NE,45,0.0,-999.0,89,-99.99,,,0.00,Acu-Link.com,2013-10-02 05:00:00,
2013-10-02 01:15:00,59.7,56.5,29.83,ESE,112,0.0,-999.0,89,-99.99,,,0.00,Acu-Link.com,2013-10-02 05:15:00,
2013-10-02 01:30:00,59.7,56.5,29.84,East,90,0.0,-999.0,89,-99.99,,,0.00,Acu-Link.com,2013-10-02 05:30:00,
2013-10-02 01:45:00,59.2,56.0,29.84,SSW,202,0.0,-999.0,89,-99.99,,,0.00,Acu-Link.com,2013-10-02 05:45:00,
2013-10-02 02:00:00,58.8,55.6,29.84,NE,45,0.0,-999.0,89,-99.99,,,0.00,Acu-Link.com,2013-10-02 06:00:00,
2013-10-02 02:15:00,58.8,55.6,29.84,East,90,0.0,-999.0,89,-99.99,,,0.00,Acu-Link.com,2013-10-02 06:15:00,
2013-10-02 02:30:00,58.3,55.4,29.84,WNW,292,0.0,-999.0,90,-99.99,,,0.00,Acu-Link.com,2013-10-02 06:30:00,
2013-10-02 02:46:00,58.3,55.4,29.84,East,90,0.0,-999.0,90,-99.99,,,0.00,Acu-Link.com,2013-10-02 06:46:00,
2013-10-02 03:01:00,58.3,55.4,29.84,East,90,0.0,-999.0,90,-99.99,,,0.00,Acu-Link.com,2013-10-02 07:01:00,
2013-10-02 03:16:00,58.3,55.4,29.84,ESE,112,0.0,-999.0,90,-99.99,,,0.00,Acu-Link.com,2013-10-02 07:16:00,
2013-10-02 03:32:00,58.1,55.2,29.83,East,90,0.0,-999.0,90,-99.99,,,0.00,Acu-Link.com,2013-10-02 07:32:00,
2013-10-02 03:47:00,57.9,55.0,29.83,SW,225,0.0,-999.0,90,-99.99,,,0.00,Acu-Link.com,2013-10-02 07:47:00,
2013-10-02 04:02:00,57.7,54.8,29.82,East,90,0.0,-999.0,90,-99.99,,,0.00,Acu-Link.com,2013-10-02 08:02:00,
2013-10-02 04:18:00,58.1,55.2,29.83,NE,45,0.0,-999.0,90,-99.99,,,0.00,Acu-Link.com,2013-10-02 08:18:00,
2013-10-02 04:34:00,58.5,55.6,29.82,ENE,67,0.0,-999.0,90,-99.99,,,0.00,Acu-Link.com,2013-10-02 08:34:00,
2013-10-02 04:49:00,58.5,55.6,29.82,NE,45,0.0,-999.0,90,-99.99,,,0.00,Acu-Link.com,2013-10-02 08:49:00,
2013-10-02 05:04:00,58.5,55.6,29.82,NE,45,0.0,-999.0,90,-99.99,,,0.00,Acu-Link.com,2013-10-02 09:04:00,
2013-10-02 05:19:00,58.5,55.6,29.82,ENE,67,0.0,-999.0,90,-99.99,,,0.00,Acu-Link.com,2013-10-02 09:19:00,
2013-10-02 05:34:00,59.7,57.1,29.82,North,0,2.2,-999.0,91,-99.99,,,0.00,Acu-Link.com,2013-10-02 09:34:00,
2013-10-02 05:50:00,59.9,57.3,29.82,NNE,22,0.0,-999.0,91,-99.99,,,0.00,Acu-Link.com,2013-10-02 09:50:00,
2013-10-02 06:05:00,59.7,57.1,29.83,North,0,2.2,-999.0,91,-99.99,,,0.00,Acu-Link.com,2013-10-02 10:05:00,
2013-10-02 06:20:00,59.7,57.1,29.84,NW,315,1.7,-999.0,91,-99.99,,,0.00,Acu-Link.com,2013-10-02 10:20:00,
2013-10-02 06:35:00,59.7,57.1,29.84,NNW,337,1.7,-999.0,91,-99.99,,,0.00,Acu-Link.com,2013-10-02 10:35:00,
2013-10-02 06:50:00,59.4,56.8,29.85,NW,315,1.1,-999.0,91,-99.99,,,0.00,Acu-Link.com,2013-10-02 10:50:00,
2013-10-02 07:06:00,59.4,56.8,29.85,NE,45,0.0,-999.0,91,-99.99,,,0.00,Acu-Link.com,2013-10-02 11:06:00,
2013-10-02 07:21:00,59.4,56.8,29.85,ENE,67,0.0,-999.0,91,-99.99,,,0.00,Acu-Link.com,2013-10-02 11:21:00,
2013-10-02 07:36:00,59.4,56.8,29.85,NE,45,0.0,-999.0,91,-99.99,,,0.00,Acu-Link.com,2013-10-02 11:36:00,
2013-10-02 07:51:00,59.5,56.9,29.86,NNE,22,1.7,-999.0,91,-99.99,,,0.00,Acu-Link.com,2013-10-02 11:51:00,
2013-10-02 08:07:00,59.7,56.8,29.86,North,0,0.0,-999.0,90,-99.99,,,0.00,Acu-Link.com,2013-10-02 12:07:00,
2013-10-02 08:22:00,60.1,57.2,29.87,NE,45,1.1,-999.0,90,-99.99,,,0.00,Acu-Link.com,2013-10-02 12:22:00,
2013-10-02 08:37:00,60.1,57.2,29.87,West,270,0.0,-999.0,90,-99.99,,,0.00,Acu-Link.com,2013-10-02 12:37:00,
2013-10-02 08:53:00,60.6,57.6,29.88,ENE,67,0.0,-999.0,90,-99.99,,,0.00,Acu-Link.com,2013-10-02 12:53:00,
2013-10-02 09:08:00,61.2,58.2,29.88,ENE,67,1.1,-999.0,90,-99.99,,,0.00,Acu-Link.com,2013-10-02 13:08:00,
2013-10-02 09:23:00,61.9,58.6,29.88,WNW,292,1.7,-999.0,89,-99.99,,,0.00,Acu-Link.com,2013-10-02 13:23:00,
2013-10-02 09:38:00,62.4,58.8,29.89,WNW,292,0.0,-999.0,88,-99.99,,,0.00,Acu-Link.com,2013-10-02 13:38:00,
2013-10-02 09:54:00,63.3,59.4,29.88,NW,315,2.2,-999.0,87,-99.99,,,0.00,Acu-Link.com,2013-10-02 13:54:00,
2013-10-02 10:09:00,64.0,59.7,29.89,NW,315,1.7,-999.0,86,-99.99,,,0.00,Acu-Link.com,2013-10-02 14:09:00,
2013-10-02 10:24:00,64.9,60.3,29.88,ENE,67,2.2,-999.0,85,-99.99,,,0.00,Acu-Link.com,2013-10-02 14:24:00,
2013-10-02 10:40:00,65.8,60.5,29.89,NW,315,1.1,-999.0,83,-99.99,,,0.00,Acu-Link.com,2013-10-02 14:40:00,
2013-10-02 10:55:00,66.6,60.9,29.88,West,270,0.0,-999.0,82,-99.99,,,0.00,Acu-Link.com,2013-10-02 14:55:00,
2013-10-02 11:10:00,67.6,61.2,29.89,West,270,1.1,-999.0,80,-99.99,,,0.00,Acu-Link.com,2013-10-02 15:10:00,
2013-10-02 11:25:00,68.4,61.3,29.88,West,270,2.2,-999.0,78,-99.99,,,0.00,Acu-Link.com,2013-10-02 15:25:00,
2013-10-02 11:41:00,68.9,61.7,29.88,NW,315,3.7,-999.0,78,-99.99,,,0.00,Acu-Link.com,2013-10-02 15:41:00,
2013-10-02 11:56:00,70.7,62.4,29.88,NW,315,1.7,-999.0,75,-99.99,,,0.00,Acu-Link.com,2013-10-02 15:56:00,
2013-10-02 12:11:00,70.2,61.1,29.87,NW,315,2.2,-999.0,73,-99.99,,,0.00,Acu-Link.com,2013-10-02 16:11:00,
2013-10-02 12:26:00,72.1,61.4,29.87,NE,45,0.0,-999.0,69,-99.99,,,0.00,Acu-Link.com,2013-10-02 16:26:00,
2013-10-02 12:41:00,71.4,61.9,29.87,West,270,0.0,-999.0,72,-99.99,,,0.00,Acu-Link.com,2013-10-02 16:41:00,
2013-10-02 12:57:00,73.9,62.2,29.86,East,90,2.2,-999.0,67,-99.99,,,0.00,Acu-Link.com,2013-10-02 16:57:00,
2013-10-02 13:12:00,74.3,62.2,29.85,NW,315,0.0,-999.0,66,-99.99,,,0.00,Acu-Link.com,2013-10-02 17:12:00,
2013-10-02 13:27:00,74.3,61.3,29.85,East,90,4.2,-999.0,64,-99.99,,,0.00,Acu-Link.com,2013-10-02 17:27:00,
2013-10-02 13:42:00,73.0,63.0,29.84,ESE,112,2.7,-999.0,71,-99.99,,,0.00,Acu-Link.com,2013-10-02 17:42:00,
2013-10-02 13:58:00,75.6,63.0,29.83,NE,45,0.0,-999.0,65,-99.99,,,0.00,Acu-Link.com,2013-10-02 17:58:00,
2013-10-02 14:13:00,73.4,62.2,29.83,West,270,0.0,-999.0,68,-99.99,,,0.00,Acu-Link.com,2013-10-02 18:13:00,
2013-10-02 14:28:00,72.7,61.5,29.83,NE,45,1.7,-999.0,68,-99.99,,,0.00,Acu-Link.com,2013-10-02 18:28:00,
2013-10-02 14:43:00,73.9,62.2,29.82,SW,225,0.0,-999.0,67,-99.99,,,0.00,Acu-Link.com,2013-10-02 18:43:00,
2013-10-02 14:58:00,74.8,61.3,29.82,East,90,1.7,-999.0,63,-99.99,,,0.00,Acu-Link.com,2013-10-02 18:58:00,
2013-10-02 15:14:00,74.7,61.7,29.81,SSW,202,0.0,-999.0,64,-99.99,,,0.00,Acu-Link.com,2013-10-02 19:14:00,
2013-10-02 15:29:00,74.8,61.8,29.81,East,90,1.7,-999.0,64,-99.99,,,0.00,Acu-Link.com,2013-10-02 19:29:00,
2013-10-02 15:44:00,73.8,62.6,29.81,SW,225,0.0,-999.0,68,-99.99,,,0.00,Acu-Link.com,2013-10-02 19:44:00,
2013-10-02 15:59:00,73.8,63.0,29.81,SW,225,0.0,-999.0,69,-99.99,,,0.00,Acu-Link.com,2013-10-02 19:59:00,
2013-10-02 16:14:00,72.7,62.7,29.80,ENE,67,0.0,-999.0,71,-99.99,,,0.00,Acu-Link.com,2013-10-02 20:14:00,
2013-10-02 16:30:00,72.9,62.9,29.80,SSW,202,0.0,-999.0,71,-99.99,,,0.00,Acu-Link.com,2013-10-02 20:30:00,
2013-10-02 16:45:00,72.7,62.7,29.81,ENE,67,0.0,-999.0,71,-99.99,,,0.00,Acu-Link.com,2013-10-02 20:45:00,
2013-10-02 17:00:00,72.1,63.0,29.80,North,0,0.0,-999.0,73,-99.99,,,0.00,Acu-Link.com,2013-10-02 21:00:00,
2013-10-02 17:16:00,72.1,63.0,29.80,SSE,157,0.0,-999.0,73,-99.99,,,0.00,Acu-Link.com,2013-10-02 21:16:00,
2013-10-02 17:31:00,71.1,63.1,29.81,South,180,0.0,-999.0,76,-99.99,,,0.00,Acu-Link.com,2013-10-02 21:31:00,
2013-10-02 17:46:00,70.5,65.1,29.81,South,180,0.0,-999.0,83,-99.99,,,0.00,Acu-Link.com,2013-10-02 21:46:00,
2013-10-02 18:01:00,70.0,64.9,29.81,South,180,0.0,-999.0,84,-99.99,,,0.00,Acu-Link.com,2013-10-02 22:01:00,
2013-10-02 18:17:00,69.4,64.7,29.80,NNE,22,0.0,-999.0,85,-99.99,,,0.00,Acu-Link.com,2013-10-02 22:17:00,
2013-10-02 18:32:00,68.4,64.4,29.81,WNW,292,0.0,-999.0,87,-99.99,,,0.00,Acu-Link.com,2013-10-02 22:32:00,
2013-10-02 18:47:00,67.8,63.8,29.81,WNW,292,0.0,-999.0,87,-99.99,,,0.00,Acu-Link.com,2013-10-02 22:47:00,
2013-10-02 19:02:00,66.9,62.9,29.81,WNW,292,0.0,-999.0,87,-99.99,,,0.00,Acu-Link.com,2013-10-02 23:02:00,
2013-10-02 19:17:00,65.1,61.5,29.81,WNW,292,0.0,-999.0,88,-99.99,,,0.00,Acu-Link.com,2013-10-02 23:17:00,
2013-10-02 19:32:00,65.3,61.7,29.82,WSW,247,0.0,-999.0,88,-99.99,,,0.00,Acu-Link.com,2013-10-02 23:32:00,
2013-10-02 19:48:00,64.4,60.8,29.82,NE,45,0.0,-999.0,88,-99.99,,,0.00,Acu-Link.com,2013-10-02 23:48:00,
2013-10-02 20:03:00,64.4,60.8,29.82,NE,45,0.0,-999.0,88,-99.99,,,0.00,Acu-Link.com,2013-10-03 00:03:00,
2013-10-02 20:18:00,64.2,60.6,29.82,SSW,202,0.0,-999.0,88,-99.99,,,0.00,Acu-Link.com,2013-10-03 00:18:00,
2013-10-02 20:33:00,63.7,60.4,29.82,NNW,337,0.0,-999.0,89,-99.99,,,0.00,Acu-Link.com,2013-10-03 00:33:00,
2013-10-02 20:49:00,63.5,60.2,29.82,West,270,0.0,-999.0,89,-99.99,,,0.00,Acu-Link.com,2013-10-03 00:49:00,
2013-10-02 21:04:00,63.3,60.0,29.82,West,270,0.0,-999.0,89,-99.99,,,0.00,Acu-Link.com,2013-10-03 01:04:00,
2013-10-02 21:19:00,62.6,59.3,29.82,WNW,292,0.0,-999.0,89,-99.99,,,0.00,Acu-Link.com,2013-10-03 01:19:00,
2013-10-02 21:35:00,62.6,59.3,29.83,NNE,22,0.0,-999.0,89,-99.99,,,0.00,Acu-Link.com,2013-10-03 01:35:00,
2013-10-02 21:50:00,62.6,59.3,29.82,NNE,22,0.0,-999.0,89,-99.99,,,0.00,Acu-Link.com,2013-10-03 01:50:00,
2013-10-02 22:05:00,62.1,58.8,29.83,NW,315,0.0,-999.0,89,-99.99,,,0.00,Acu-Link.com,2013-10-03 02:05:00,
2013-10-02 22:20:00,62.1,58.8,29.83,West,270,0.0,-999.0,89,-99.99,,,0.00,Acu-Link.com,2013-10-03 02:20:00,
2013-10-02 22:36:00,62.1,58.8,29.84,NNE,22,0.0,-999.0,89,-99.99,,,0.00,Acu-Link.com,2013-10-03 02:36:00,
2013-10-02 22:51:00,61.9,58.6,29.84,NW,315,0.0,-999.0,89,-99.99,,,0.00,Acu-Link.com,2013-10-03 02:51:00,
2013-10-02 23:06:00,61.9,58.6,29.84,NW,315,0.0,-999.0,89,-99.99,,,0.00,Acu-Link.com,2013-10-03 03:06:00,
2013-10-02 23:22:00,61.7,58.7,29.84,NW,315,0.0,-999.0,90,-99.99,,,0.00,Acu-Link.com,2013-10-03 03:22:00,
2013-10-02 23:37:00,61.7,58.7,29.84,ENE,67,0.0,-999.0,90,-99.99,,,0.00,Acu-Link.com,2013-10-03 03:37:00,
2013-10-02 23:52:00,61.7,58.7,29.85,SSW,202,0.0,-999.0,90,-99.99,,,0.00,Acu-Link.com,2013-10-03 03:52:00,